Time;durP1;ratioP1;P1;durP2;ratioP2;P2;SDS_P1;SDS_P2;PMS_P1;PMS_P2;Temp;Humidity;BMP_temperature;BMP_pressure;BME280_temperature;BME280_humidity;BME280_pressure;Samples;Min_cycle;Max_cycle;Signal;HPM_P1;HPM_P2
2023/03/27 00:01:10;;;;;;;10.37;1.60;;;4.90;99.90;;;;;;5094066;28;20072;-79
2023/03/27 00:03:37;;;;;;;7.28;1.60;;;4.80;99.90;;;;;;5093406;28;20399;-78
2023/03/27 00:06:06;;;;;;;10.55;1.27;;;4.80;99.90;;;;;;5093701;28;20534;-78
2023/03/27 00:08:32;;;;;;;7.53;1.40;;;4.80;99.90;;;;;;5094209;28;20047;-79
2023/03/27 00:10:59;;;;;;;7.57;1.02;;;4.80;99.90;;;;;;5092751;28;20086;-78
2023/03/27 00:13:25;;;;;;;9.68;2.35;;;4.70;99.90;;;;;;5093576;28;20055;-78
2023/03/27 00:15:54;;;;;;;10.75;1.50;;;4.70;99.90;;;;;;5093042;28;20052;-78
2023/03/27 00:18:20;;;;;;;7.47;1.10;;;4.80;99.90;;;;;;5093868;28;20044;-78
2023/03/27 00:20:46;;;;;;;5.00;1.35;;;4.80;99.90;;;;;;5094071;28;20046;-78
2023/03/27 00:23:12;;;;;;;12.40;1.58;;;4.80;99.90;;;;;;5093472;28;20470;-78
2023/03/27 00:25:39;;;;;;;7.53;1.40;;;4.80;99.90;;;;;;5092951;28;20146;-78
2023/03/27 00:28:07;;;;;;;9.55;1.23;;;4.80;99.90;;;;;;5093670;28;20284;-78
2023/03/27 00:30:34;;;;;;;7.72;1.38;;;4.80;99.90;;;;;;5093298;28;20173;-78
2023/03/27 00:32:59;;;;;;;7.28;1.30;;;4.80;99.90;;;;;;5092843;28;20083;-78
2023/03/27 00:35:27;;;;;;;6.83;1.47;;;4.70;99.90;;;;;;5092412;28;20518;-78
2023/03/27 00:37:53;;;;;;;9.63;1.77;;;4.70;99.90;;;;;;5092516;28;20393;-79
2023/03/27 00:40:19;;;;;;;8.77;1.30;;;4.80;99.90;;;;;;5093388;28;20044;-79
2023/03/27 00:42:50;;;;;;;9.63;1.85;;;4.70;99.90;;;;;;5092705;28;20395;-78
2023/03/27 00:45:17;;;;;;;8.35;1.50;;;4.80;99.90;;;;;;5092263;28;20441;-78
2023/03/27 00:47:44;;;;;;;8.73;1.60;;;4.80;99.90;;;;;;5093615;28;20051;-78
2023/03/27 00:50:17;;;;;;;8.48;1.63;;;4.80;99.90;;;;;;5091946;28;20050;-79
2023/03/27 00:52:50;;;;;;;8.40;1.70;;;4.80;99.90;;;;;;5092316;28;20047;-78
2023/03/27 00:55:18;;;;;;;7.18;1.73;;;4.80;99.90;;;;;;5093325;28;20476;-79
2023/03/27 00:57:55;;;;;;;4.93;1.17;;;4.80;99.90;;;;;;5093332;28;20059;-78
2023/03/27 01:00:22;;;;;;;6.43;1.25;;;4.70;99.90;;;;;;5093093;28;20073;-79
2023/03/27 01:02:49;;;;;;;10.70;1.90;;;4.80;99.90;;;;;;5092150;28;20052;-79
2023/03/27 01:05:17;;;;;;;9.75;1.95;;;4.80;99.90;;;;;;5093092;28;20045;-79
2023/03/27 01:07:44;;;;;;;10.20;1.63;;;4.80;99.90;;;;;;5092283;28;20472;-79
2023/03/27 01:10:10;;;;;;;6.05;1.30;;;4.70;99.90;;;;;;5092870;28;20079;-79
2023/03/27 01:12:36;;;;;;;11.50;1.75;;;4.70;99.90;;;;;;5093251;28;20064;-79
2023/03/27 01:15:32;;;;;;;9.60;1.50;;;4.80;99.90;;;;;;5092866;28;20412;-78
2023/03/27 01:18:12;;;;;;;8.45;1.67;;;4.70;99.90;;;;;;5093505;28;20081;-78
2023/03/27 01:21:05;;;;;;;9.25;1.70;;;4.70;99.90;;;;;;5075511;28;20040;-78
2023/03/27 01:23:52;;;;;;;6.72;1.38;;;4.70;99.90;;;;;;5091914;28;20052;-78
2023/03/27 01:26:40;;;;;;;6.85;1.52;;;4.70;99.90;;;;;;5092056;28;20091;-79
2023/03/27 01:29:24;;;;;;;8.18;1.33;;;4.60;99.90;;;;;;5092233;28;20044;-77
2023/03/27 01:32:30;;;;;;;12.57;2.35;;;4.60;99.90;;;;;;5092247;28;20433;-78
2023/03/27 01:34:58;;;;;;;11.10;1.95;;;4.60;99.90;;;;;;5091094;28;20051;-79
2023/03/27 01:37:30;;;;;;;10.88;1.98;;;4.50;99.90;;;;;;5091629;28;20044;-79
2023/03/27 01:40:06;;;;;;;8.23;1.90;;;4.50;99.90;;;;;;5091886;28;20066;-78
2023/03/27 01:42:47;;;;;;;10.32;2.03;;;4.50;99.90;;;;;;5093014;28;20148;-78
2023/03/27 01:45:19;;;;;;;16.08;2.20;;;4.40;99.90;;;;;;5096001;28;20369;-79
2023/03/27 01:47:53;;;;;;;16.48;3.03;;;4.40;99.90;;;;;;5097007;28;20122;-78
2023/03/27 01:50:48;;;;;;;11.23;1.60;;;4.40;99.90;;;;;;5095446;28;20547;-79
2023/03/27 01:53:39;;;;;;;9.77;2.05;;;4.40;99.90;;;;;;5096656;28;20048;-79
2023/03/27 01:56:07;;;;;;;13.75;1.80;;;4.40;99.90;;;;;;5096906;28;20039;-79
2023/03/27 01:58:46;;;;;;;10.55;1.75;;;4.40;99.90;;;;;;5095360;28;20048;-79
2023/03/27 02:01:27;;;;;;;9.02;1.40;;;4.50;99.90;;;;;;5095220;28;20094;-79
2023/03/27 02:03:56;;;;;;;10.05;1.60;;;4.50;99.90;;;;;;5095520;28;20048;-79
2023/03/27 02:06:25;;;;;;;8.73;1.65;;;4.50;99.90;;;;;;5095209;28;20048;-79
2023/03/27 02:09:03;;;;;;;11.13;1.90;;;4.50;99.90;;;;;;5095749;28;20102;-79
2023/03/27 02:11:38;;;;;;;11.70;2.10;;;4.50;99.90;;;;;;5096004;28;20052;-79
2023/03/27 02:14:22;;;;;;;9.60;2.55;;;4.50;99.90;;;;;;5095336;28;20040;-79
2023/03/27 02:16:54;;;;;;;8.25;1.58;;;4.50;99.90;;;;;;5095916;28;20388;-79
2023/03/27 02:19:25;;;;;;;7.85;1.67;;;4.40;99.90;;;;;;5095327;28;20059;-80
2023/03/27 02:21:51;;;;;;;9.65;1.48;;;4.40;99.90;;;;;;5096623;28;20044;-80
2023/03/27 02:24:17;;;;;;;11.30;1.90;;;4.50;99.90;;;;;;5095048;28;20150;-79
2023/03/27 02:26:45;;;;;;;9.82;1.90;;;4.50;99.90;;;;;;5096315;28;20097;-79
2023/03/27 02:29:48;;;;;;;6.35;1.40;;;4.40;99.90;;;;;;5096205;28;20059;-79
2023/03/27 02:32:23;;;;;;;11.05;1.50;;;4.50;99.90;;;;;;5078331;28;20056;-79
2023/03/27 02:35:24;;;;;;;6.63;1.25;;;4.40;99.90;;;;;;5095349;28;20052;-79
2023/03/27 02:38:01;;;;;;;7.90;1.73;;;4.40;99.90;;;;;;5077999;28;20048;-79
2023/03/27 02:40:41;;;;;;;11.20;1.70;;;4.30;99.90;;;;;;5095906;28;20445;-79
2023/03/27 02:43:10;;;;;;;8.50;1.50;;;4.30;99.90;;;;;;5096082;28;20050;-79
2023/03/27 02:45:55;;;;;;;9.55;1.60;;;4.30;99.90;;;;;;5095751;28;20055;-79
2023/03/27 02:48:21;;;;;;;;;;;4.40;99.90;;;;;;5094964;28;20434;-80
2023/03/27 02:50:55;;;;;;;8.93;1.60;;;4.40;99.90;;;;;;5094548;28;19965;-80
2023/03/27 02:53:24;;;;;;;6.85;1.50;;;4.50;99.90;;;;;;5094355;28;20052;-79
2023/03/27 02:56:02;;;;;;;7.95;1.40;;;4.40;99.90;;;;;;5094053;28;20051;-79
2023/03/27 02:58:41;;;;;;;5.30;1.65;;;4.40;99.90;;;;;;5095456;28;20048;-80
2023/03/27 03:01:12;;;;;;;9.30;1.80;;;4.50;99.90;;;;;;5077838;28;20040;-80
2023/03/27 03:03:38;;;;;;;8.18;1.85;;;4.40;99.90;;;;;;5094352;28;20301;-80
2023/03/27 03:06:05;;;;;;;11.23;2.10;;;4.40;99.90;;;;;;5096109;28;20473;-80
2023/03/27 03:08:37;;;;;;;7.50;1.67;;;4.30;99.90;;;;;;5077669;28;20048;-80
2023/03/27 03:11:05;;;;;;;8.45;1.65;;;4.30;99.90;;;;;;5077199;28;20373;-80
2023/03/27 03:13:31;;;;;;;8.50;1.40;;;4.30;99.90;;;;;;5094330;28;20052;-80
2023/03/27 03:15:57;;;;;;;6.03;1.50;;;4.20;99.90;;;;;;5077499;28;20383;-80
2023/03/27 03:18:24;;;;;;;7.50;1.45;;;4.20;99.90;;;;;;5094995;28;20046;-80
2023/03/27 03:20:53;;;;;;;11.43;1.77;;;4.20;99.90;;;;;;5094295;28;20048;-80
2023/03/27 03:23:21;;;;;;;7.90;1.67;;;4.20;99.90;;;;;;5095364;28;20044;-80
2023/03/27 03:25:51;;;;;;;8.57;1.80;;;4.20;99.90;;;;;;5094280;28;20109;-81
2023/03/27 03:28:17;;;;;;;12.02;2.35;;;4.10;99.90;;;;;;5095529;28;20045;-81
2023/03/27 03:30:47;;;;;;;6.95;1.33;;;4.10;99.90;;;;;;5094691;28;20043;-80
2023/03/27 03:33:13;;;;;;;10.27;2.05;;;4.10;99.90;;;;;;5094057;28;20047;-80
2023/03/27 03:35:39;;;;;;;6.67;1.97;;;4.10;99.90;;;;;;5094651;28;20399;-80
2023/03/27 03:38:05;;;;;;;11.18;2.05;;;4.10;99.90;;;;;;5093610;28;20051;-80
2023/03/27 03:40:31;;;;;;;13.07;1.83;;;4.10;99.90;;;;;;5093533;28;20048;-80
2023/03/27 03:42:57;;;;;;;8.57;1.67;;;4.10;99.90;;;;;;5093748;28;20054;-80
2023/03/27 03:45:23;;;;;;;6.20;1.55;;;4.10;99.90;;;;;;5093871;28;20050;-80
2023/03/27 03:47:49;;;;;;;9.95;2.00;;;4.10;99.90;;;;;;5094478;28;20044;-80
2023/03/27 03:50:15;;;;;;;9.73;1.93;;;4.10;99.90;;;;;;5094647;28;20040;-80
2023/03/27 03:52:41;;;;;;;14.90;2.20;;;4.20;99.90;;;;;;5094446;28;20054;-80
2023/03/27 03:55:11;;;;;;;12.88;2.38;;;4.20;99.90;;;;;;5093601;28;20414;-80
2023/03/27 03:57:37;;;;;;;12.52;2.30;;;4.20;99.90;;;;;;5093164;28;20043;-80
2023/03/27 04:00:11;;;;;;;12.85;2.05;;;4.30;99.90;;;;;;5094468;28;20453;-80
2023/03/27 04:02:37;;;;;;;10.00;1.73;;;4.20;99.90;;;;;;5094246;28;20059;-80
2023/03/27 04:05:03;;;;;;;7.68;1.98;;;4.20;99.90;;;;;;5094485;28;20052;-80
2023/03/27 04:07:34;;;;;;;12.45;2.15;;;4.30;99.90;;;;;;5094141;28;20040;-80
2023/03/27 04:10:03;;;;;;;11.07;2.63;;;4.20;99.90;;;;;;5093671;28;20048;-80
2023/03/27 04:12:29;;;;;;;16.48;3.25;;;4.20;99.90;;;;;;5092687;28;20135;-80
2023/03/27 04:14:55;;;;;;;13.30;1.80;;;4.20;99.90;;;;;;5094335;28;20123;-80
2023/03/27 04:17:25;;;;;;;10.48;1.90;;;4.20;99.90;;;;;;5093094;28;20062;-79
2023/03/27 04:19:53;;;;;;;13.55;1.98;;;4.20;99.90;;;;;;5092767;28;20113;-79
2023/03/27 04:22:21;;;;;;;9.60;1.92;;;4.20;99.90;;;;;;5092623;28;20550;-80
2023/03/27 04:24:49;;;;;;;12.05;2.45;;;4.20;99.90;;;;;;5093834;28;20059;-80
2023/03/27 04:27:16;;;;;;;13.00;2.55;;;4.20;99.90;;;;;;5093941;28;20103;-79
2023/03/27 04:29:46;;;;;;;19.80;2.80;;;4.20;99.90;;;;;;5092576;28;20052;-80
2023/03/27 04:32:19;;;;;;;9.32;2.03;;;4.10;99.90;;;;;;5092808;28;20039;-79
2023/03/27 04:34:49;;;;;;;18.27;2.33;;;4.10;99.90;;;;;;5093608;28;20123;-79
2023/03/27 04:37:15;;;;;;;13.75;2.60;;;4.10;99.90;;;;;;5092673;28;20048;-80
2023/03/27 04:39:45;;;;;;;16.10;2.30;;;4.20;99.90;;;;;;5092206;28;20092;-80
2023/03/27 04:42:14;;;;;;;13.77;2.75;;;4.10;99.90;;;;;;5093706;28;20134;-80
2023/03/27 04:44:40;;;;;;;12.45;1.98;;;4.10;99.90;;;;;;5092373;28;20052;-80
2023/03/27 04:47:06;;;;;;;10.73;2.45;;;4.10;99.90;;;;;;5092664;28;20051;-80
2023/03/27 04:49:49;;;;;;;14.80;2.70;;;4.20;99.90;;;;;;5093163;28;20052;-80
2023/03/27 04:52:18;;;;;;;11.52;2.85;;;4.20;99.90;;;;;;5093606;28;20052;-80
2023/03/27 04:54:44;;;;;;;12.68;1.95;;;4.20;99.90;;;;;;5093262;28;20077;-80
2023/03/27 04:57:10;;;;;;;7.20;2.13;;;4.20;99.90;;;;;;5093489;28;20051;-80
2023/03/27 04:59:36;;;;;;;6.47;1.75;;;4.20;99.90;;;;;;5093307;28;20047;-80
2023/03/27 05:02:03;;;;;;;10.13;2.35;;;4.20;99.90;;;;;;5093611;28;20052;-80
2023/03/27 05:04:30;;;;;;;10.52;1.90;;;4.20;99.90;;;;;;5092166;28;20101;-80
2023/03/27 05:06:58;;;;;;;11.57;1.90;;;4.20;99.90;;;;;;5091884;28;20532;-80
2023/03/27 05:09:24;;;;;;;7.68;1.40;;;4.20;99.90;;;;;;5093347;28;20128;-80
2023/03/27 05:11:51;;;;;;;8.82;1.75;;;4.10;99.90;;;;;;5092377;28;20150;-80
2023/03/27 05:14:21;;;;;;;11.57;2.85;;;4.20;99.90;;;;;;5093307;28;20052;-80
2023/03/27 05:16:51;;;;;;;10.05;1.80;;;4.10;99.90;;;;;;5092647;28;20102;-80
2023/03/27 05:19:20;;;;;;;10.90;1.77;;;4.10;99.90;;;;;;5092129;28;20044;-80
2023/03/27 05:21:46;;;;;;;7.80;1.90;;;4.10;99.90;;;;;;5093205;28;20121;-80
2023/03/27 05:24:14;;;;;;;8.82;1.70;;;4.10;99.90;;;;;;5093166;28;20475;-80
2023/03/27 05:26:40;;;;;;;8.25;1.27;;;4.10;99.90;;;;;;5092854;28;20048;-80
2023/03/27 05:29:07;;;;;;;12.90;1.70;;;4.10;99.90;;;;;;5092181;28;20086;-80
2023/03/27 05:31:34;;;;;;;11.13;1.80;;;4.10;99.90;;;;;;5075140;28;20044;-80
2023/03/27 05:34:01;;;;;;;11.23;2.03;;;4.20;99.90;;;;;;5093079;28;20117;-80
2023/03/27 05:36:28;;;;;;;5.40;1.40;;;4.20;99.90;;;;;;5091828;28;20123;-79
2023/03/27 05:38:56;;;;;;;11.57;1.88;;;4.20;99.90;;;;;;5075060;28;20059;-80
2023/03/27 05:41:23;;;;;;;8.82;1.55;;;4.10;99.90;;;;;;5091776;28;20051;-80
2023/03/27 05:43:49;;;;;;;12.05;2.08;;;4.10;99.90;;;;;;5091816;28;20060;-80
2023/03/27 05:46:16;;;;;;;7.13;1.48;;;4.10;99.90;;;;;;5093004;28;20048;-79
2023/03/27 05:48:41;;;;;;;9.98;1.83;;;4.10;99.90;;;;;;5092482;28;20479;-79
2023/03/27 05:51:08;;;;;;;11.20;1.60;;;4.20;99.90;;;;;;5093052;28;20079;-79
2023/03/27 05:53:38;;;;;;;5.57;1.40;;;4.10;99.90;;;;;;5092917;28;20044;-79
2023/03/27 05:56:05;;;;;;;11.18;2.97;;;4.10;99.90;;;;;;5091631;28;20530;-80
2023/03/27 05:58:30;;;;;;;13.23;2.40;;;4.10;99.90;;;;;;5091709;28;20098;-80
2023/03/27 06:00:56;;;;;;;6.23;1.53;;;4.10;99.90;;;;;;5092692;28;20036;-80
2023/03/27 06:03:23;;;;;;;9.77;1.37;;;4.10;99.90;;;;;;5091522;28;20442;-80
2023/03/27 06:05:49;;;;;;;11.25;1.65;;;4.10;99.90;;;;;;5091661;28;20131;-80
2023/03/27 06:08:15;;;;;;;9.73;2.10;;;4.10;99.90;;;;;;5091984;28;20442;-80
2023/03/27 06:10:43;;;;;;;6.47;1.50;;;4.20;99.90;;;;;;5091321;28;20040;-77
2023/03/27 06:13:11;;;;;;;14.02;1.92;;;4.30;99.90;;;;;;5092926;28;20048;-80
2023/03/27 06:15:40;;;;;;;12.88;2.05;;;4.30;99.90;;;;;;5092795;28;20147;-78
2023/03/27 06:18:07;;;;;;;10.55;2.67;;;4.40;99.90;;;;;;5092104;28;20059;-80
2023/03/27 06:20:34;;;;;;;9.75;1.73;;;4.40;99.90;;;;;;5092641;28;20602;-78
2023/03/27 06:23:02;;;;;;;5.90;1.33;;;4.40;99.90;;;;;;5091359;28;20102;-79
2023/03/27 06:25:31;;;;;;;8.68;1.73;;;4.40;99.90;;;;;;5092588;28;20055;-80
2023/03/27 06:27:57;;;;;;;10.45;1.83;;;4.40;99.90;;;;;;5092239;28;20052;-80
2023/03/27 06:30:24;;;;;;;11.02;2.22;;;4.40;99.90;;;;;;5094928;28;20105;-83
2023/03/27 06:32:59;;;;;;;8.55;1.70;;;4.50;99.90;;;;;;5094768;28;20090;-79
2023/03/27 06:35:27;;;;;;;10.45;1.40;;;4.50;99.90;;;;;;5096613;28;20114;-79
2023/03/27 06:37:57;;;;;;;7.25;1.42;;;4.50;99.90;;;;;;5094988;28;20044;-82
2023/03/27 06:40:26;;;;;;;7.35;1.48;;;4.50;99.90;;;;;;5094683;28;20488;-78
2023/03/27 06:42:56;;;;;;;9.02;1.60;;;4.60;99.90;;;;;;5094599;28;20055;-77
2023/03/27 06:45:25;;;;;;;11.43;2.20;;;4.60;99.90;;;;;;5096292;28;20147;-80
2023/03/27 06:47:52;;;;;;;9.07;1.65;;;4.60;99.90;;;;;;5095663;28;20193;-80
2023/03/27 06:50:19;;;;;;;9.68;1.10;;;4.70;99.90;;;;;;5093800;28;20048;-80
2023/03/27 06:52:49;;;;;;;8.20;1.73;;;4.80;99.90;;;;;;5094235;28;20547;-80
2023/03/27 06:55:17;;;;;;;11.52;1.92;;;5.30;99.90;;;;;;5094822;28;20044;-80
2023/03/27 06:57:48;;;;;;;9.13;2.03;;;6.60;99.90;;;;;;5094914;28;20476;-81
2023/03/27 07:00:17;;;;;;;13.32;1.77;;;8.00;99.90;;;;;;5095884;28;20079;-81
2023/03/27 07:03:03;;;;;;;9.85;1.52;;;9.40;99.90;;;;;;5095855;28;20052;-81
2023/03/27 07:05:32;;;;;;;5.97;1.40;;;10.60;99.90;;;;;;5094667;28;20040;-80
2023/03/27 07:07:58;;;;;;;4.63;1.60;;;11.90;99.90;;;;;;5095535;28;20113;-81
2023/03/27 07:10:25;;;;;;;7.43;1.50;;;12.90;99.90;;;;;;5095581;28;20762;-81
2023/03/27 07:12:53;;;;;;;7.80;1.70;;;13.70;99.90;;;;;;5077237;28;20294;-81
2023/03/27 07:15:19;;;;;;;9.40;2.10;;;14.50;96.30;;;;;;5095568;28;20780;-79
2023/03/27 07:17:56;;;;;;;7.53;1.40;;;14.90;95.90;;;;;;5094633;28;20286;-81
2023/03/27 07:20:23;;;;;;;10.17;1.90;;;14.80;77.50;;;;;;5094659;28;20286;-82
2023/03/27 07:22:49;;;;;;;7.70;1.50;;;14.00;83.10;;;;;;5095310;28;20274;-80
2023/03/27 07:25:15;;;;;;;5.97;1.67;;;12.90;83.40;;;;;;5095506;28;20772;-80
2023/03/27 07:27:41;;;;;;;9.90;1.87;;;11.80;82.30;;;;;;5077647;28;20051;-80
2023/03/27 07:30:10;;;;;;;5.93;1.47;;;10.90;90.20;;;;;;5094069;28;20354;-80
2023/03/27 07:32:37;;;;;;;7.83;2.03;;;11.10;91.90;;;;;;5095313;28;20668;-80
2023/03/27 07:35:07;;;;;;;8.90;1.50;;;12.20;92.80;;;;;;5094156;28;20313;-80
2023/03/27 07:37:36;;;;;;;7.10;1.70;;;12.80;87.80;;;;;;5095299;28;20270;-80
2023/03/27 07:40:06;;;;;;;7.63;1.53;;;13.70;85.60;;;;;;5076675;28;20372;-80
2023/03/27 07:42:33;;;;;;;7.63;1.47;;;14.30;79.70;;;;;;5095074;28;20278;-80
2023/03/27 07:45:01;;;;;;;6.90;1.70;;;14.10;74.10;;;;;;5094754;28;20278;-80
2023/03/27 07:47:27;;;;;;;7.47;1.80;;;13.30;72.20;;;;;;5093802;28;20298;-80
2023/03/27 07:49:53;;;;;;;6.33;1.50;;;12.30;71.90;;;;;;5094517;28;20359;-80
2023/03/27 07:52:19;;;;;;;7.17;1.50;;;11.60;74.60;;;;;;5093889;28;20289;-80
2023/03/27 07:54:47;;;;;;;8.50;1.33;;;10.80;76.20;;;;;;5094732;28;20277;-79
2023/03/27 07:57:14;;;;;;;6.73;1.80;;;10.10;78.10;;;;;;5060444;28;20052;-79
2023/03/27 07:59:40;;;;;;;8.37;1.70;;;9.20;82.30;;;;;;5093744;28;20352;-79
2023/03/27 08:02:08;;;;;;;7.57;1.80;;;8.30;87.90;;;;;;5094482;28;20688;-79
2023/03/27 08:04:35;;;;;;;7.30;1.30;;;7.70;92.00;;;;;;5094580;28;20271;-79
2023/03/27 08:07:01;;;;;;;8.07;1.50;;;7.40;95.40;;;;;;5094428;28;20286;-79
2023/03/27 08:09:26;;;;;;;7.97;1.60;;;7.30;97.90;;;;;;5093226;28;20778;-79
2023/03/27 08:11:52;;;;;;;7.83;1.77;;;7.60;98.90;;;;;;5092729;28;20086;-81
2023/03/27 08:14:18;;;;;;;8.60;1.50;;;7.90;99.10;;;;;;5094664;28;20104;-79
2023/03/27 08:16:44;;;;;;;9.80;1.53;;;8.10;98.60;;;;;;5093210;28;20147;-79
2023/03/27 08:19:10;;;;;;;11.43;1.80;;;8.20;98.50;;;;;;5094128;28;20040;-79
2023/03/27 08:21:37;;;;;;;13.10;1.60;;;8.30;98.50;;;;;;5094050;28;20388;-79
2023/03/27 08:24:03;;;;;;;9.07;2.23;;;8.20;98.60;;;;;;5092825;28;20621;-79
2023/03/27 08:26:32;;;;;;;8.03;1.50;;;8.30;98.80;;;;;;5094374;28;20282;-79
2023/03/27 08:28:58;;;;;;;4.13;1.00;;;7.90;99.90;;;;;;5093105;28;20293;-81
2023/03/27 08:31:26;;;;;;;5.87;1.50;;;7.10;99.90;;;;;;5094053;28;20301;-77
2023/03/27 08:33:52;;;;;;;4.87;1.00;;;6.40;99.90;;;;;;5094077;28;20282;-75
2023/03/27 08:36:18;;;;;;;3.23;1.00;;;5.90;99.90;;;;;;5093806;28;20369;-75
2023/03/27 08:38:45;;;;;;;5.80;1.30;;;5.60;99.90;;;;;;5094041;28;20048;-75
2023/03/27 08:41:43;;;;;;;3.07;0.83;;;5.50;99.90;;;;;;5093788;28;20290;-76
2023/03/27 08:44:19;;;;;;;3.47;1.20;;;5.50;99.90;;;;;;5081672;28;20290;-76
2023/03/27 08:46:53;;;;;;;3.90;0.98;;;5.40;99.90;;;;;;5093816;28;20332;-77
2023/03/27 08:49:20;;;;;;;2.47;0.82;;;5.50;99.90;;;;;;5093529;28;20101;-78
2023/03/27 08:51:58;;;;;;;2.78;0.80;;;5.60;99.90;;;;;;5092960;28;20044;-78
2023/03/27 08:54:30;;;;;;;3.97;0.90;;;5.80;99.90;;;;;;5093670;28;20104;-79
2023/03/27 08:56:57;;;;;;;6.80;1.10;;;5.80;99.90;;;;;;5092463;28;20419;-79
2023/03/27 08:59:26;;;;;;;4.90;1.10;;;5.90;99.90;;;;;;5092764;28;20286;-79
2023/03/27 09:02:14;;;;;;;4.63;0.90;;;6.10;99.90;;;;;;5093662;28;20044;-80
2023/03/27 09:04:47;;;;;;;4.40;1.50;;;6.20;99.90;;;;;;5093780;28;20488;-80
2023/03/27 09:07:33;;;;;;;11.00;1.58;;;6.20;99.90;;;;;;5075808;28;20071;-80
2023/03/27 09:10:01;;;;;;;;;;;6.30;99.90;;;;;;5092391;28;20044;-81
2023/03/27 09:12:49;;;;;;;5.88;1.45;;;6.40;99.90;;;;;;5093822;28;20318;-78
2023/03/27 09:15:55;;;;;;;5.05;1.20;;;6.40;99.90;;;;;;5093312;28;20059;-80
2023/03/27 09:18:37;;;;;;;6.18;1.33;;;6.50;99.90;;;;;;5052076;28;20059;-81
2023/03/27 09:21:30;;;;;;;5.25;1.48;;;6.60;99.90;;;;;;5076034;28;20044;-79
2023/03/27 09:24:00;;;;;;;10.25;1.80;;;6.70;99.90;;;;;;5092565;28;20388;-80
2023/03/27 09:26:33;;;;;;;7.80;1.40;;;6.90;99.90;;;;;;5092420;28;20392;-80
2023/03/27 09:29:07;;;;;;;9.57;1.77;;;7.00;99.90;;;;;;5092557;28;20048;-80
2023/03/27 09:31:38;;;;;;;8.40;1.95;;;7.10;99.90;;;;;;5092940;28;20484;-79
2023/03/27 09:34:07;;;;;;;8.65;1.40;;;7.20;99.90;;;;;;5093262;28;20044;-80
2023/03/27 09:36:34;;;;;;;12.35;2.13;;;7.30;99.90;;;;;;5092245;28;20055;-79
2023/03/27 09:39:28;;;;;;;7.40;1.52;;;7.30;99.90;;;;;;5092329;28;20056;-79
2023/03/27 09:42:25;;;;;;;9.25;1.38;;;7.20;99.90;;;;;;5090895;28;20048;-79
2023/03/27 09:44:57;;;;;;;7.10;1.73;;;7.10;99.90;;;;;;5091816;28;20496;-79
2023/03/27 09:47:48;;;;;;;6.22;1.35;;;7.10;99.90;;;;;;5091952;28;20552;-80
2023/03/27 09:50:19;;;;;;;9.57;2.08;;;7.00;99.90;;;;;;5092035;28;20487;-79
2023/03/27 09:52:45;;;;;;;7.25;1.52;;;7.00;99.90;;;;;;5093340;28;20048;-79
2023/03/27 09:55:30;;;;;;;8.17;1.97;;;7.10;99.90;;;;;;5074989;28;20048;-80
2023/03/27 09:58:12;;;;;;;9.48;1.40;;;7.20;99.90;;;;;;5092134;28;20043;-79
2023/03/27 10:00:38;;;;;;;10.20;1.50;;;7.20;99.90;;;;;;5093057;28;20496;-79
2023/03/27 10:03:23;;;;;;;7.63;1.57;;;7.10;99.90;;;;;;5092161;28;20055;-79
2023/03/27 10:06:05;;;;;;;6.22;1.40;;;7.20;99.90;;;;;;5079223;28;20044;-79
2023/03/27 10:08:38;;;;;;;8.70;1.80;;;7.20;99.90;;;;;;5096925;28;20048;-79
2023/03/27 10:11:06;;;;;;;6.97;1.42;;;7.20;99.90;;;;;;5096823;28;20388;-79
2023/03/27 10:13:33;;;;;;;7.32;1.48;;;7.20;99.90;;;;;;5079101;28;20048;-79
2023/03/27 10:16:05;;;;;;;7.03;1.80;;;7.20;99.90;;;;;;5078876;28;20468;-79
2023/03/27 10:18:34;;;;;;;5.85;1.33;;;7.20;99.90;;;;;;5096055;28;20052;-79
2023/03/27 10:21:15;;;;;;;8.65;1.50;;;7.20;99.90;;;;;;5095695;28;20394;-79
2023/03/27 10:23:43;;;;;;;7.18;1.40;;;7.20;99.90;;;;;;5096735;28;20377;-79
2023/03/27 10:26:12;;;;;;;10.48;1.50;;;7.30;99.90;;;;;;5096315;28;20044;-79
2023/03/27 10:28:45;;;;;;;8.27;1.52;;;7.40;99.90;;;;;;5096790;28;20396;-80
2023/03/27 10:31:33;;;;;;;7.07;1.30;;;7.50;99.90;;;;;;5078128;28;20559;-80
2023/03/27 10:34:05;;;;;;;8.55;1.88;;;7.40;99.90;;;;;;5078566;28;20135;-80
2023/03/27 10:36:33;;;;;;;9.20;1.40;;;7.50;99.90;;;;;;5077982;28;20056;-79
2023/03/27 10:39:08;;;;;;;9.35;1.50;;;7.60;99.90;;;;;;5096393;28;20343;-79
2023/03/27 10:41:37;;;;;;;7.70;1.20;;;7.70;99.90;;;;;;5096265;28;20499;-80
2023/03/27 10:44:16;;;;;;;10.90;2.28;;;7.70;99.90;;;;;;5096176;28;20044;-80
2023/03/27 10:46:42;;;;;;;7.80;1.67;;;7.70;99.90;;;;;;5096171;28;20048;-80
2023/03/27 10:49:24;;;;;;;6.30;1.10;;;7.80;99.90;;;;;;5094881;28;20048;-83
2023/03/27 10:51:55;;;;;;;5.03;1.40;;;7.90;99.90;;;;;;5096220;28;20297;-80
2023/03/27 10:54:52;;;;;;;9.40;1.77;;;7.90;99.90;;;;;;5095971;28;20090;-80
2023/03/27 10:57:29;;;;;;;6.70;1.20;;;7.80;99.90;;;;;;5095935;28;20626;-80
2023/03/27 11:00:06;;;;;;;5.07;0.90;;;7.60;99.90;;;;;;5095145;28;20117;-80
2023/03/27 11:02:37;;;;;;;4.50;1.23;;;7.50;99.90;;;;;;5077939;28;20135;-80
2023/03/27 11:05:17;;;;;;;7.53;1.60;;;7.50;99.90;;;;;;5095893;28;20304;-80
2023/03/27 11:07:59;;;;;;;7.97;1.00;;;7.40;99.90;;;;;;5096157;28;20278;-80
2023/03/27 11:10:40;;;;;;;8.35;1.45;;;7.40;99.90;;;;;;5095543;28;20036;-80
2023/03/27 11:13:13;;;;;;;5.75;1.38;;;7.40;99.90;;;;;;5095597;28;20048;-80
2023/03/27 11:15:50;;;;;;;9.18;1.35;;;7.50;99.90;;;;;;5094926;28;20048;-80
2023/03/27 11:18:22;;;;;;;7.72;1.58;;;7.60;99.90;;;;;;5094522;28;20052;-80
2023/03/27 11:20:58;;;;;;;7.32;1.40;;;7.60;99.90;;;;;;5095831;28;20097;-80
2023/03/27 11:23:35;;;;;;;8.15;1.70;;;7.60;99.90;;;;;;5094309;28;20510;-81
2023/03/27 11:26:04;;;;;;;8.95;1.40;;;7.60;99.90;;;;;;5094467;28;20480;-79
2023/03/27 11:28:54;;;;;;;7.10;1.52;;;7.70;99.90;;;;;;5093865;28;20515;-80
2023/03/27 11:31:37;;;;;;;7.72;1.55;;;7.90;99.90;;;;;;5095037;28;20119;-80
2023/03/27 11:34:14;;;;;;;9.80;1.58;;;7.90;99.90;;;;;;5095729;28;20040;-79
2023/03/27 11:36:51;;;;;;;7.88;1.30;;;7.80;99.90;;;;;;5094383;28;20583;-80
2023/03/27 11:39:35;;;;;;;8.15;1.30;;;7.70;99.90;;;;;;5095132;28;20381;-80
2023/03/27 11:42:15;;;;;;;10.27;1.70;;;7.70;99.90;;;;;;5094208;28;20056;-80
2023/03/27 11:44:41;;;;;;;8.73;1.73;;;7.50;99.90;;;;;;5095238;28;20274;-81
2023/03/27 11:47:15;;;;;;;6.43;1.57;;;7.40;99.90;;;;;;5094824;28;20073;-79
2023/03/27 11:50:04;;;;;;;8.07;1.52;;;7.30;99.90;;;;;;5095139;28;20301;-80
2023/03/27 11:53:08;;;;;;;10.40;1.73;;;7.30;99.90;;;;;;5094651;28;20099;-80
2023/03/27 11:55:42;;;;;;;10.23;2.08;;;7.40;99.90;;;;;;5062772;28;20063;-80
2023/03/27 11:58:50;;;;;;;11.75;2.83;;;7.40;99.90;;;;;;5093834;28;20063;-79
2023/03/27 12:01:59;;;;;;;7.32;1.63;;;7.60;99.90;;;;;;5094791;28;20127;-80
2023/03/27 12:04:50;;;;;;;6.53;1.52;;;7.60;99.90;;;;;;5015554;28;20068;-81
2023/03/27 12:07:34;;;;;;;9.98;1.70;;;7.70;99.90;;;;;;5094618;28;20051;-80
2023/03/27 12:10:18;;;;;;;6.70;1.60;;;7.80;99.90;;;;;;5094497;28;20066;-80
2023/03/27 12:13:22;;;;;;;8.15;1.80;;;7.90;99.90;;;;;;5094283;28;20060;-80
2023/03/27 12:16:02;;;;;;;8.05;1.60;;;7.90;99.90;;;;;;5094284;28;20048;-80
2023/03/27 12:18:30;;;;;;;9.63;2.10;;;8.00;99.90;;;;;;5094200;28;20422;-80
2023/03/27 12:20:59;;;;;;;7.28;1.50;;;8.00;99.90;;;;;;5093209;28;20047;-80
2023/03/27 12:23:46;;;;;;;10.33;1.57;;;8.20;99.90;;;;;;5092918;28;20062;-81
2023/03/27 12:26:36;;;;;;;9.50;1.65;;;8.30;99.90;;;;;;5093826;28;20278;-80
2023/03/27 12:29:24;;;;;;;9.37;2.47;;;8.40;99.90;;;;;;5092912;28;20400;-79
2023/03/27 12:32:02;;;;;;;8.07;1.63;;;8.40;98.00;;;;;;5092706;28;20302;-80
2023/03/27 12:34:49;;;;;;;6.87;1.60;;;8.50;97.60;;;;;;5093940;28;20281;-79
2023/03/27 12:37:17;;;;;;;7.30;1.73;;;8.60;98.80;;;;;;5093988;28;20281;-79
2023/03/27 12:39:49;;;;;;;10.00;2.10;;;8.60;98.30;;;;;;5093696;28;20774;-79
2023/03/27 12:42:37;;;;;;;9.55;1.60;;;8.60;97.50;;;;;;5094026;28;20276;-79
2023/03/27 12:45:16;;;;;;;10.07;1.63;;;8.70;97.30;;;;;;5094414;28;20044;-79
2023/03/27 12:48:03;;;;;;;7.03;1.80;;;8.80;97.60;;;;;;5092681;28;20901;-79
2023/03/27 12:50:33;;;;;;;12.13;2.23;;;8.90;97.40;;;;;;5075287;28;20308;-80
2023/03/27 12:53:04;;;;;;;10.97;2.27;;;8.50;99.00;;;;;;5093682;28;20321;-80
2023/03/27 12:55:32;;;;;;;8.20;1.70;;;8.20;99.90;;;;;;5093515;28;20286;-81
2023/03/27 12:58:00;;;;;;;11.98;2.50;;;8.10;99.90;;;;;;5092443;28;20290;-80
2023/03/27 13:00:27;;;;;;;13.00;2.40;;;7.90;99.90;;;;;;5092412;28;20138;-81
2023/03/27 13:03:28;;;;;;;13.47;2.03;;;7.60;99.90;;;;;;5093594;28;20661;-80
2023/03/27 13:06:03;;;;;;;13.02;2.47;;;7.70;99.90;;;;;;5061279;28;20330;-80
2023/03/27 13:08:59;;;;;;;11.70;2.17;;;7.80;99.90;;;;;;5092286;28;20135;-81
2023/03/27 13:11:46;;;;;;;11.50;2.17;;;7.90;99.90;;;;;;5074719;28;20040;-81
2023/03/27 13:14:49;;;;;;;9.50;1.97;;;7.90;99.90;;;;;;5092562;28;20298;-80
2023/03/27 13:17:46;;;;;;;10.73;2.03;;;7.80;99.90;;;;;;5093470;28;20365;-80
2023/03/27 13:20:33;;;;;;;8.33;1.67;;;7.80;99.90;;;;;;5093394;28;20792;-79
2023/03/27 13:23:27;;;;;;;8.80;1.42;;;7.90;99.90;;;;;;5091840;28;20758;-80